Terminal Aerodrome Forecast
Issued by NWS Brownsville, TX

Home | Current Version | Previous Version | Text Only | Print | Product List | Glossary On
Versions: 1 2 3 4 5 6 7 8 9 10 11 12 13 14 15 16
000
FTUS44 KBRO 051124
TAFHRL
TAF
KHRL 051124Z 0512/0612 13010KT P6SM FEW060
     FM051400 14013G21KT P6SM BKN025
     FM051600 14017G26KT P6SM SCT025
     FM060200 13011G17KT P6SM BKN025
     FM060500 13011KT P6SM BKN015=

USA.gov is the U.S. government's official web portal to all federal, state and local government web resources and services.